sensor_id;sensor_type;location;lat;lon;timestamp;pressure;altitude;pressure_sealevel;temperature;humidity
21956;BME280;11142;49.930;8.606;2023-05-01T00:00:35;100147.91;;;13.61;84.89
21956;BME280;11142;49.930;8.606;2023-05-01T00:03:05;100144.91;;;13.54;85.23
21956;BME280;11142;49.930;8.606;2023-05-01T00:05:34;100147.28;;;13.46;85.76
21956;BME280;11142;49.930;8.606;2023-05-01T00:08:04;100134.94;;;13.37;86.34
21956;BME280;11142;49.930;8.606;2023-05-01T00:10:33;100147.97;;;13.37;86.51
21956;BME280;11142;49.930;8.606;2023-05-01T00:13:04;100151.97;;;13.30;88.28
21956;BME280;11142;49.930;8.606;2023-05-01T00:15:33;100138.91;;;13.19;89.07
21956;BME280;11142;49.930;8.606;2023-05-01T00:18:02;100138.09;;;13.06;90.11
21956;BME280;11142;49.930;8.606;2023-05-01T00:20:34;100123.84;;;12.99;91.14
21956;BME280;11142;49.930;8.606;2023-05-01T00:23:05;100126.16;;;12.91;92.46
21956;BME280;11142;49.930;8.606;2023-05-01T00:25:34;100134.72;;;12.93;92.09
21956;BME280;11142;49.930;8.606;2023-05-01T00:28:02;100125.56;;;12.87;93.17
21956;BME280;11142;49.930;8.606;2023-05-01T00:30:31;100119.59;;;12.74;94.05
21956;BME280;11142;49.930;8.606;2023-05-01T00:33:00;100126.66;;;12.72;95.94
21956;BME280;11142;49.930;8.606;2023-05-01T00:35:28;100120.34;;;12.63;95.97
21956;BME280;11142;49.930;8.606;2023-05-01T00:38:00;100116.69;;;12.66;96.34
21956;BME280;11142;49.930;8.606;2023-05-01T00:40:28;100115.47;;;12.59;96.36
21956;BME280;11142;49.930;8.606;2023-05-01T00:42:56;100110.63;;;12.65;96.94
21956;BME280;11142;49.930;8.606;2023-05-01T00:45:24;100119.00;;;12.58;97.21
21956;BME280;11142;49.930;8.606;2023-05-01T00:47:53;100114.88;;;12.55;97.79
21956;BME280;11142;49.930;8.606;2023-05-01T00:50:21;100115.47;;;12.59;97.77
21956;BME280;11142;49.930;8.606;2023-05-01T00:52:49;100103.66;;;12.66;96.91
21956;BME280;11142;49.930;8.606;2023-05-01T00:55:19;100104.09;;;12.60;98.79
21956;BME280;11142;49.930;8.606;2023-05-01T00:57:47;100106.31;;;12.53;99.91
21956;BME280;11142;49.930;8.606;2023-05-01T01:00:15;100099.38;;;12.41;100.00
21956;BME280;11142;49.930;8.606;2023-05-01T01:02:49;100093.78;;;12.35;100.00
21956;BME280;11142;49.930;8.606;2023-05-01T01:05:17;100093.72;;;12.23;100.00
21956;BME280;11142;49.930;8.606;2023-05-01T01:07:50;100091.13;;;12.11;100.00
21956;BME280;11142;49.930;8.606;2023-05-01T01:10:29;100083.94;;;12.02;100.00
21956;BME280;11142;49.930;8.606;2023-05-01T01:13:03;100081.69;;;11.97;100.00
21956;BME280;11142;49.930;8.606;2023-05-01T01:15:38;100071.69;;;11.91;100.00
21956;BME280;11142;49.930;8.606;2023-05-01T01:18:11;100077.19;;;11.87;100.00
21956;BME280;11142;49.930;8.606;2023-05-01T01:20:43;100077.53;;;11.82;100.00
21956;BME280;11142;49.930;8.606;2023-05-01T01:26:13;100071.47;;;11.69;100.00
21956;BME280;11142;49.930;8.606;2023-05-01T01:28:54;100066.19;;;11.70;100.00
21956;BME280;11142;49.930;8.606;2023-05-01T01:31:28;100067.13;;;11.69;100.00
21956;BME280;11142;49.930;8.606;2023-05-01T01:34:06;100066.28;;;11.69;100.00
21956;BME280;11142;49.930;8.606;2023-05-01T01:36:39;100069.41;;;11.74;100.00
21956;BME280;11142;49.930;8.606;2023-05-01T01:39:12;100063.69;;;11.69;100.00
21956;BME280;11142;49.930;8.606;2023-05-01T01:41:42;100066.56;;;11.64;100.00
21956;BME280;11142;49.930;8.606;2023-05-01T01:44:15;100057.56;;;11.57;100.00
21956;BME280;11142;49.930;8.606;2023-05-01T01:46:47;100047.56;;;11.51;100.00
21956;BME280;11142;49.930;8.606;2023-05-01T01:49:18;100049.34;;;11.51;100.00
21956;BME280;11142;49.930;8.606;2023-05-01T01:51:49;100051.00;;;11.52;100.00
21956;BME280;11142;49.930;8.606;2023-05-01T01:54:21;100052.03;;;11.49;100.00
21956;BME280;11142;49.930;8.606;2023-05-01T01:56:52;100057.22;;;11.49;100.00
21956;BME280;11142;49.930;8.606;2023-05-01T01:59:20;100047.66;;;11.37;100.00
21956;BME280;11142;49.930;8.606;2023-05-01T02:01:50;100049.00;;;11.30;100.00
21956;BME280;11142;49.930;8.606;2023-05-01T02:04:22;100049.13;;;11.29;100.00
21956;BME280;11142;49.930;8.606;2023-05-01T02:06:51;100043.59;;;11.20;100.00
21956;BME280;11142;49.930;8.606;2023-05-01T02:09:20;100048.78;;;11.20;100.00
21956;BME280;11142;49.930;8.606;2023-05-01T02:11:50;100038.41;;;11.20;100.00
21956;BME280;11142;49.930;8.606;2023-05-01T02:14:23;100041.13;;;11.19;100.00
21956;BME280;11142;49.930;8.606;2023-05-01T02:16:53;100039.94;;;11.10;100.00
21956;BME280;11142;49.930;8.606;2023-05-01T02:19:23;100035.47;;;11.00;100.00
21956;BME280;11142;49.930;8.606;2023-05-01T02:21:55;100035.72;;;10.83;100.00
21956;BME280;11142;49.930;8.606;2023-05-01T02:24:28;100034.66;;;10.73;100.00
21956;BME280;11142;49.930;8.606;2023-05-01T02:27:02;100031.75;;;10.64;100.00
21956;BME280;11142;49.930;8.606;2023-05-01T02:29:32;100035.94;;;10.53;100.00
21956;BME280;11142;49.930;8.606;2023-05-01T02:32:01;100032.88;;;10.60;100.00
21956;BME280;11142;49.930;8.606;2023-05-01T02:34:31;100043.19;;;10.75;100.00
21956;BME280;11142;49.930;8.606;2023-05-01T02:37:05;100041.31;;;10.77;100.00
21956;BME280;11142;49.930;8.606;2023-05-01T02:39:33;100034.47;;;10.76;100.00
21956;BME280;11142;49.930;8.606;2023-05-01T02:42:02;100039.66;;;10.76;100.00
21956;BME280;11142;49.930;8.606;2023-05-01T02:44:34;100032.06;;;10.73;100.00
21956;BME280;11142;49.930;8.606;2023-05-01T02:47:06;100034.13;;;10.68;100.00
21956;BME280;11142;49.930;8.606;2023-05-01T02:49:38;100018.22;;;10.59;100.00
21956;BME280;11142;49.930;8.606;2023-05-01T02:52:09;100026.25;;;10.42;100.00
21956;BME280;11142;49.930;8.606;2023-05-01T02:54:39;100019.22;;;10.44;100.00
21956;BME280;11142;49.930;8.606;2023-05-01T02:57:09;100024.75;;;10.52;100.00
21956;BME280;11142;49.930;8.606;2023-05-01T02:59:37;100024.78;;;10.38;100.00
21956;BME280;11142;49.930;8.606;2023-05-01T03:02:08;100021.09;;;10.28;100.00
21956;BME280;11142;49.930;8.606;2023-05-01T03:04:39;100023.41;;;10.33;100.00
21956;BME280;11142;49.930;8.606;2023-05-01T03:07:08;100022.25;;;10.24;100.00
21956;BME280;11142;49.930;8.606;2023-05-01T03:09:36;100009.75;;;10.43;100.00
21956;BME280;11142;49.930;8.606;2023-05-01T03:12:05;100016.97;;;10.52;100.00
21956;BME280;11142;49.930;8.606;2023-05-01T03:14:34;100017.84;;;10.39;100.00
21956;BME280;11142;49.930;8.606;2023-05-01T03:17:02;100011.63;;;10.41;100.00
21956;BME280;11142;49.930;8.606;2023-05-01T03:19:32;100006.78;;;10.49;100.00
21956;BME280;11142;49.930;8.606;2023-05-01T03:22:01;100012.59;;;10.53;100.00
21956;BME280;11142;49.930;8.606;2023-05-01T03:24:30;100015.84;;;10.69;100.00
21956;BME280;11142;49.930;8.606;2023-05-01T03:26:58;100012.84;;;10.75;100.00
21956;BME280;11142;49.930;8.606;2023-05-01T03:29:27;100015.41;;;10.62;100.00
21956;BME280;11142;49.930;8.606;2023-05-01T03:31:56;100010.50;;;10.85;100.00
21956;BME280;11142;49.930;8.606;2023-05-01T03:34:24;100010.25;;;10.75;100.00
21956;BME280;11142;49.930;8.606;2023-05-01T03:36:54;100003.13;;;10.79;100.00
21956;BME280;11142;49.930;8.606;2023-05-01T03:39:27;100002.00;;;10.83;100.00
21956;BME280;11142;49.930;8.606;2023-05-01T03:42:15;100002.63;;;10.86;100.00
21956;BME280;11142;49.930;8.606;2023-05-01T03:44:44;100002.41;;;10.89;100.00
21956;BME280;11142;49.930;8.606;2023-05-01T03:47:14;100008.88;;;10.96;100.00
21956;BME280;11142;49.930;8.606;2023-05-01T03:49:43;100002.44;;;11.02;100.00
21956;BME280;11142;49.930;8.606;2023-05-01T03:52:12;100005.03;;;11.02;100.00
21956;BME280;11142;49.930;8.606;2023-05-01T03:54:45;99999.13;;;11.12;100.00
21956;BME280;11142;49.930;8.606;2023-05-01T03:57:37;99998.69;;;10.93;100.00
21956;BME280;11142;49.930;8.606;2023-05-01T04:00:08;99998.06;;;10.90;100.00
21956;BME280;11142;49.930;8.606;2023-05-01T04:02:41;99987.66;;;10.77;100.00
21956;BME280;11142;49.930;8.606;2023-05-01T04:05:14;99992.53;;;10.82;100.00
21956;BME280;11142;49.930;8.606;2023-05-01T04:07:49;99988.97;;;10.70;100.00
21956;BME280;11142;49.930;8.606;2023-05-01T04:10:19;99991.38;;;10.73;100.00
21956;BME280;11142;49.930;8.606;2023-05-01T04:12:56;99992.22;;;10.74;100.00
21956;BME280;11142;49.930;8.606;2023-05-01T04:15:26;99988.78;;;10.73;100.00
21956;BME280;11142;49.930;8.606;2023-05-01T04:17:56;99994.50;;;10.78;100.00
21956;BME280;11142;49.930;8.606;2023-05-01T04:20:24;99990.47;;;10.74;100.00
21956;BME280;11142;49.930;8.606;2023-05-01T04:22:54;99994.09;;;10.72;100.00
21956;BME280;11142;49.930;8.606;2023-05-01T04:25:24;99998.44;;;10.71;100.00
21956;BME280;11142;49.930;8.606;2023-05-01T04:27:59;99999.25;;;10.59;100.00
21956;BME280;11142;49.930;8.606;2023-05-01T04:30:28;99996.75;;;10.57;100.00
21956;BME280;11142;49.930;8.606;2023-05-01T04:32:57;99998.50;;;10.96;100.00
21956;BME280;11142;49.930;8.606;2023-05-01T04:35:26;100006.38;;;10.95;100.00
21956;BME280;11142;49.930;8.606;2023-05-01T04:37:58;100005.53;;;10.94;100.00
21956;BME280;11142;49.930;8.606;2023-05-01T04:40:31;100011.78;;;11.17;100.00
21956;BME280;11142;49.930;8.606;2023-05-01T04:43:00;100006.47;;;10.93;100.00
21956;BME280;11142;49.930;8.606;2023-05-01T04:45:28;100011.34;;;10.98;100.00
21956;BME280;11142;49.930;8.606;2023-05-01T04:47:57;100007.97;;;11.35;100.00
21956;BME280;11142;49.930;8.606;2023-05-01T04:50:25;100009.84;;;11.33;100.00
21956;BME280;11142;49.930;8.606;2023-05-01T04:52:56;100009.72;;;10.97;100.00
21956;BME280;11142;49.930;8.606;2023-05-01T04:55:26;100011.97;;;10.89;100.00
21956;BME280;11142;49.930;8.606;2023-05-01T04:58:10;100014.28;;;11.06;100.00
21956;BME280;11142;49.930;8.606;2023-05-01T05:00:41;100008.28;;;11.18;100.00
21956;BME280;11142;49.930;8.606;2023-05-01T05:03:16;100010.75;;;11.32;100.00
21956;BME280;11142;49.930;8.606;2023-05-01T05:05:45;100004.34;;;11.50;100.00
21956;BME280;11142;49.930;8.606;2023-05-01T05:08:14;100005.16;;;11.26;100.00
21956;BME280;11142;49.930;8.606;2023-05-01T05:10:55;100012.75;;;11.03;100.00
21956;BME280;11142;49.930;8.606;2023-05-01T05:13:30;100010.22;;;11.02;100.00
21956;BME280;11142;49.930;8.606;2023-05-01T05:16:08;100005.97;;;11.01;100.00
21956;BME280;11142;49.930;8.606;2023-05-01T05:18:36;100007.00;;;10.98;100.00
21956;BME280;11142;49.930;8.606;2023-05-01T05:21:05;99996.41;;;11.64;100.00
21956;BME280;11142;49.930;8.606;2023-05-01T05:23:34;100004.34;;;11.50;100.00
21956;BME280;11142;49.930;8.606;2023-05-01T05:26:02;100005.25;;;11.62;100.00
21956;BME280;11142;49.930;8.606;2023-05-01T05:28:32;100006.47;;;11.94;100.00
21956;BME280;11142;49.930;8.606;2023-05-01T05:31:01;100003.72;;;11.72;100.00
21956;BME280;11142;49.930;8.606;2023-05-01T05:33:30;100004.31;;;11.63;100.00
21956;BME280;11142;49.930;8.606;2023-05-01T05:35:58;100006.59;;;11.55;100.00
21956;BME280;11142;49.930;8.606;2023-05-01T05:38:34;100000.78;;;11.51;100.00
21956;BME280;11142;49.930;8.606;2023-05-01T05:41:05;100000.69;;;11.53;100.00
21956;BME280;11142;49.930;8.606;2023-05-01T05:43:37;100003.78;;;11.58;100.00
21956;BME280;11142;49.930;8.606;2023-05-01T05:46:07;100005.97;;;11.77;100.00
21956;BME280;11142;49.930;8.606;2023-05-01T05:48:37;100008.81;;;12.10;100.00
21956;BME280;11142;49.930;8.606;2023-05-01T05:51:06;100000.72;;;12.14;100.00
21956;BME280;11142;49.930;8.606;2023-05-01T05:53:34;100003.78;;;12.43;100.00
21956;BME280;11142;49.930;8.606;2023-05-01T05:56:03;100001.16;;;12.32;100.00
21956;BME280;11142;49.930;8.606;2023-05-01T05:58:31;99995.63;;;12.00;100.00
21956;BME280;11142;49.930;8.606;2023-05-01T06:01:01;100008.97;;;12.32;100.00
21956;BME280;11142;49.930;8.606;2023-05-01T06:03:29;100002.31;;;12.52;100.00
21956;BME280;11142;49.930;8.606;2023-05-01T06:06:00;100003.56;;;13.05;100.00
21956;BME280;11142;49.930;8.606;2023-05-01T06:08:28;100000.19;;;12.81;100.00
21956;BME280;11142;49.930;8.606;2023-05-01T06:11:03;100005.91;;;12.97;100.00
21956;BME280;11142;49.930;8.606;2023-05-01T06:13:34;100002.50;;;13.53;100.00
21956;BME280;11142;49.930;8.606;2023-05-01T06:16:05;100002.97;;;13.47;100.00
21956;BME280;11142;49.930;8.606;2023-05-01T06:18:34;99998.31;;;13.95;96.35
21956;BME280;11142;49.930;8.606;2023-05-01T06:21:02;99993.66;;;13.99;94.70
21956;BME280;11142;49.930;8.606;2023-05-01T06:23:31;99999.84;;;13.42;100.00
21956;BME280;11142;49.930;8.606;2023-05-01T06:26:35;99994.78;;;13.85;97.84
21956;BME280;11142;49.930;8.606;2023-05-01T06:29:03;99995.94;;;14.03;98.81
21956;BME280;11142;49.930;8.606;2023-05-01T06:31:34;99987.88;;;14.49;92.92
21956;BME280;11142;49.930;8.606;2023-05-01T06:34:03;99992.84;;;15.05;84.21
21956;BME280;11142;49.930;8.606;2023-05-01T06:36:48;99992.19;;;14.92;85.20
21956;BME280;11142;49.930;8.606;2023-05-01T06:39:17;99990.94;;;15.58;80.28
21956;BME280;11142;49.930;8.606;2023-05-01T06:41:45;99993.78;;;15.04;81.39
21956;BME280;11142;49.930;8.606;2023-05-01T06:44:14;99987.81;;;14.92;85.95
21956;BME280;11142;49.930;8.606;2023-05-01T06:46:43;99987.06;;;14.80;85.06
21956;BME280;11142;49.930;8.606;2023-05-01T06:49:12;99992.00;;;15.04;82.53
21956;BME280;11142;49.930;8.606;2023-05-01T06:51:41;99980.78;;;15.34;75.64
21956;BME280;11142;49.930;8.606;2023-05-01T06:54:11;99984.44;;;15.82;71.73
21956;BME280;11142;49.930;8.606;2023-05-01T06:56:40;99987.41;;;16.08;70.36
21956;BME280;11142;49.930;8.606;2023-05-01T06:59:09;99993.47;;;16.09;68.95
21956;BME280;11142;49.930;8.606;2023-05-01T07:01:38;99989.59;;;16.03;68.05
21956;BME280;11142;49.930;8.606;2023-05-01T07:04:07;99981.88;;;16.02;67.24
21956;BME280;11142;49.930;8.606;2023-05-01T07:06:35;99979.03;;;15.74;68.57
21956;BME280;11142;49.930;8.606;2023-05-01T07:09:05;99985.47;;;16.01;69.59
21956;BME280;11142;49.930;8.606;2023-05-01T07:11:33;99979.28;;;16.11;69.41
21956;BME280;11142;49.930;8.606;2023-05-01T07:14:03;99983.59;;;16.41;68.64
21956;BME280;11142;49.930;8.606;2023-05-01T07:16:31;99984.84;;;16.46;66.80
21956;BME280;11142;49.930;8.606;2023-05-01T07:19:01;99979.19;;;16.41;68.20
21956;BME280;11142;49.930;8.606;2023-05-01T07:21:30;99976.59;;;16.70;64.23
21956;BME280;11142;49.930;8.606;2023-05-01T07:23:59;99979.63;;;16.75;64.68
21956;BME280;11142;49.930;8.606;2023-05-01T07:26:27;99982.53;;;17.38;62.69
21956;BME280;11142;49.930;8.606;2023-05-01T07:28:55;99975.31;;;17.03;61.21
21956;BME280;11142;49.930;8.606;2023-05-01T07:31:24;99974.81;;;16.80;63.73
21956;BME280;11142;49.930;8.606;2023-05-01T07:33:52;99978.59;;;16.09;65.91
21956;BME280;11142;49.930;8.606;2023-05-01T07:36:20;99977.41;;;16.99;65.07
21956;BME280;11142;49.930;8.606;2023-05-01T07:38:49;99979.81;;;17.30;63.74
21956;BME280;11142;49.930;8.606;2023-05-01T07:41:18;99976.34;;;17.29;63.92
21956;BME280;11142;49.930;8.606;2023-05-01T07:43:45;99976.63;;;17.73;60.81
21956;BME280;11142;49.930;8.606;2023-05-01T07:46:13;99975.97;;;17.71;61.19
21956;BME280;11142;49.930;8.606;2023-05-01T07:48:42;99976.38;;;17.76;61.18
21956;BME280;11142;49.930;8.606;2023-05-01T07:51:11;99978.25;;;17.56;59.20
21956;BME280;11142;49.930;8.606;2023-05-01T07:53:39;99970.38;;;17.46;59.90
21956;BME280;11142;49.930;8.606;2023-05-01T07:56:10;99974.50;;;17.49;59.57
21956;BME280;11142;49.930;8.606;2023-05-01T07:58:38;99972.06;;;18.02;59.59
21956;BME280;11142;49.930;8.606;2023-05-01T08:01:08;99980.94;;;18.36;58.27
21956;BME280;11142;49.930;8.606;2023-05-01T08:03:36;99977.53;;;18.53;57.49
21956;BME280;11142;49.930;8.606;2023-05-01T08:06:05;99980.75;;;18.65;54.85
21956;BME280;11142;49.930;8.606;2023-05-01T08:08:33;99974.50;;;19.53;52.58
21956;BME280;11142;49.930;8.606;2023-05-01T08:11:01;99972.72;;;20.11;50.74
21956;BME280;11142;49.930;8.606;2023-05-01T08:13:31;99976.44;;;20.43;48.23
21956;BME280;11142;49.930;8.606;2023-05-01T08:15:59;99979.25;;;20.41;47.87
21956;BME280;11142;49.930;8.606;2023-05-01T08:18:28;99980.75;;;20.60;47.11
21956;BME280;11142;49.930;8.606;2023-05-01T08:20:56;99984.38;;;20.51;46.19
21956;BME280;11142;49.930;8.606;2023-05-01T08:23:25;99977.81;;;19.97;48.20
21956;BME280;11142;49.930;8.606;2023-05-01T08:25:55;99972.03;;;20.01;48.82
21956;BME280;11142;49.930;8.606;2023-05-01T08:28:23;99962.19;;;20.03;49.75
21956;BME280;11142;49.930;8.606;2023-05-01T08:30:53;99965.47;;;20.05;48.11
21956;BME280;11142;49.930;8.606;2023-05-01T08:33:21;99963.16;;;20.02;48.23
21956;BME280;11142;49.930;8.606;2023-05-01T08:35:51;99961.97;;;19.89;49.54
21956;BME280;11142;49.930;8.606;2023-05-01T08:38:19;99961.06;;;20.22;48.27
21956;BME280;11142;49.930;8.606;2023-05-01T08:40:50;99960.41;;;19.62;48.97
21956;BME280;11142;49.930;8.606;2023-05-01T08:43:18;99963.31;;;19.93;50.52
21956;BME280;11142;49.930;8.606;2023-05-01T08:45:46;99965.28;;;20.57;48.78
21956;BME280;11142;49.930;8.606;2023-05-01T08:48:16;99953.53;;;21.16;47.20
21956;BME280;11142;49.930;8.606;2023-05-01T08:50:46;99967.56;;;21.08;46.00
21956;BME280;11142;49.930;8.606;2023-05-01T08:53:14;99963.28;;;21.24;45.46
21956;BME280;11142;49.930;8.606;2023-05-01T08:55:43;99961.97;;;20.95;46.07
21956;BME280;11142;49.930;8.606;2023-05-01T08:58:11;99956.97;;;20.20;47.29
21956;BME280;11142;49.930;8.606;2023-05-01T09:00:41;99955.53;;;19.83;50.20
21956;BME280;11142;49.930;8.606;2023-05-01T09:03:10;99956.03;;;21.09;46.43
21956;BME280;11142;49.930;8.606;2023-05-01T09:05:42;99955.84;;;22.58;44.26
21956;BME280;11142;49.930;8.606;2023-05-01T09:08:11;99952.28;;;23.11;40.77
21956;BME280;11142;49.930;8.606;2023-05-01T09:10:43;99945.34;;;22.50;41.03
21956;BME280;11142;49.930;8.606;2023-05-01T09:13:13;99949.66;;;22.20;42.70
21956;BME280;11142;49.930;8.606;2023-05-01T09:15:41;99946.25;;;22.80;41.24
21956;BME280;11142;49.930;8.606;2023-05-01T09:18:15;99949.44;;;23.13;41.05
21956;BME280;11142;49.930;8.606;2023-05-01T09:20:44;99963.41;;;23.21;39.78
21956;BME280;11142;49.930;8.606;2023-05-01T09:23:12;99958.88;;;23.59;38.02
21956;BME280;11142;49.930;8.606;2023-05-01T09:25:40;99953.06;;;24.00;38.04
21956;BME280;11142;49.930;8.606;2023-05-01T09:28:08;99948.06;;;23.32;39.12
21956;BME280;11142;49.930;8.606;2023-05-01T09:30:37;99948.56;;;23.50;37.98
21956;BME280;11142;49.930;8.606;2023-05-01T09:33:07;99948.09;;;23.61;39.17
21956;BME280;11142;49.930;8.606;2023-05-01T09:35:50;99936.50;;;23.98;38.76
21956;BME280;11142;49.930;8.606;2023-05-01T09:38:19;99940.56;;;23.94;38.44
21956;BME280;11142;49.930;8.606;2023-05-01T09:40:48;99930.41;;;23.97;37.93
21956;BME280;11142;49.930;8.606;2023-05-01T09:43:22;99935.53;;;24.20;37.76
21956;BME280;11142;49.930;8.606;2023-05-01T09:45:58;99934.22;;;23.95;38.42
21956;BME280;11142;49.930;8.606;2023-05-01T09:48:26;99943.13;;;24.23;37.80
21956;BME280;11142;49.930;8.606;2023-05-01T09:51:02;99935.75;;;23.68;39.04
21956;BME280;11142;49.930;8.606;2023-05-01T09:53:46;99932.78;;;23.92;38.03
21956;BME280;11142;49.930;8.606;2023-05-01T09:56:17;99941.41;;;25.00;35.44
21956;BME280;11142;49.930;8.606;2023-05-01T09:58:46;99942.72;;;24.90;35.97
21956;BME280;11142;49.930;8.606;2023-05-01T10:01:15;99943.66;;;25.37;36.17
21956;BME280;11142;49.930;8.606;2023-05-01T10:03:43;99945.13;;;26.48;33.93
21956;BME280;11142;49.930;8.606;2023-05-01T10:06:26;99938.31;;;27.51;32.66
21956;BME280;11142;49.930;8.606;2023-05-01T10:08:55;99938.25;;;25.93;34.12
21956;BME280;11142;49.930;8.606;2023-05-01T10:11:23;99942.69;;;27.06;32.74
21956;BME280;11142;49.930;8.606;2023-05-01T10:14:05;99939.13;;;28.65;31.43
21956;BME280;11142;49.930;8.606;2023-05-01T10:16:35;99948.75;;;30.24;28.24
21956;BME280;11142;49.930;8.606;2023-05-01T10:19:04;99954.41;;;30.99;27.21
21956;BME280;11142;49.930;8.606;2023-05-01T10:21:34;99953.94;;;31.02;27.13
21956;BME280;11142;49.930;8.606;2023-05-01T10:24:03;99956.81;;;31.47;28.04
21956;BME280;11142;49.930;8.606;2023-05-01T10:26:33;99958.75;;;31.75;26.55
21956;BME280;11142;49.930;8.606;2023-05-01T10:29:01;99955.63;;;32.63;26.08
21956;BME280;11142;49.930;8.606;2023-05-01T10:31:29;99949.72;;;32.99;24.35
21956;BME280;11142;49.930;8.606;2023-05-01T10:33:58;99950.19;;;31.38;25.83
21956;BME280;11142;49.930;8.606;2023-05-01T10:36:30;99954.50;;;30.81;26.95
21956;BME280;11142;49.930;8.606;2023-05-01T10:39:00;99951.19;;;30.67;27.33
21956;BME280;11142;49.930;8.606;2023-05-01T10:44:19;99945.47;;;34.06;24.77
21956;BME280;11142;49.930;8.606;2023-05-01T10:46:48;99947.56;;;35.79;22.60
21956;BME280;11142;49.930;8.606;2023-05-01T10:49:18;99949.06;;;34.39;22.93
21956;BME280;11142;49.930;8.606;2023-05-01T10:54:31;99928.38;;;30.23;27.56
21956;BME280;11142;49.930;8.606;2023-05-01T10:57:01;99929.69;;;31.83;25.73
21956;BME280;11142;49.930;8.606;2023-05-01T11:02:20;99923.84;;;30.24;26.77
21956;BME280;11142;49.930;8.606;2023-05-01T11:04:50;99922.91;;;30.60;26.93
21956;BME280;11142;49.930;8.606;2023-05-01T11:07:21;99919.38;;;28.97;28.60
21956;BME280;11142;49.930;8.606;2023-05-01T11:09:51;99913.75;;;27.22;31.08
21956;BME280;11142;49.930;8.606;2023-05-01T11:15:08;99905.75;;;27.86;31.78
21956;BME280;11142;49.930;8.606;2023-05-01T11:17:45;99907.09;;;28.65;29.49
21956;BME280;11142;49.930;8.606;2023-05-01T11:23:02;99909.06;;;29.73;28.75
21956;BME280;11142;49.930;8.606;2023-05-01T11:25:33;99908.06;;;30.04;27.72
21956;BME280;11142;49.930;8.606;2023-05-01T11:28:01;99900.94;;;31.55;25.75
21956;BME280;11142;49.930;8.606;2023-05-01T11:30:35;99904.50;;;31.21;26.26
21956;BME280;11142;49.930;8.606;2023-05-01T11:33:03;99906.53;;;32.89;25.46
21956;BME280;11142;49.930;8.606;2023-05-01T11:35:34;99905.06;;;33.58;23.33
21956;BME280;11142;49.930;8.606;2023-05-01T11:38:03;99896.72;;;31.59;25.02
21956;BME280;11142;49.930;8.606;2023-05-01T11:40:33;99892.75;;;30.99;25.37
21956;BME280;11142;49.930;8.606;2023-05-01T11:43:01;99892.59;;;30.94;26.63
21956;BME280;11142;49.930;8.606;2023-05-01T11:45:30;99897.16;;;31.17;25.73
21956;BME280;11142;49.930;8.606;2023-05-01T11:47:59;99891.44;;;30.14;26.25
21956;BME280;11142;49.930;8.606;2023-05-01T11:50:31;99885.34;;;30.48;26.30
21956;BME280;11142;49.930;8.606;2023-05-01T11:53:01;99887.16;;;32.70;24.15
21956;BME280;11142;49.930;8.606;2023-05-01T11:55:30;99894.25;;;34.97;22.60
21956;BME280;11142;49.930;8.606;2023-05-01T11:58:01;99900.50;;;35.59;21.90
21956;BME280;11142;49.930;8.606;2023-05-01T12:00:30;99902.19;;;37.86;19.57
21956;BME280;11142;49.930;8.606;2023-05-01T12:02:59;99899.91;;;39.66;18.05
21956;BME280;11142;49.930;8.606;2023-05-01T12:05:28;99887.84;;;35.70;20.16
21956;BME280;11142;49.930;8.606;2023-05-01T12:08:09;99885.28;;;32.54;23.58
21956;BME280;11142;49.930;8.606;2023-05-01T12:10:41;99873.63;;;30.95;24.49
21956;BME280;11142;49.930;8.606;2023-05-01T12:13:12;99885.78;;;31.61;25.63
21956;BME280;11142;49.930;8.606;2023-05-01T12:15:41;99891.44;;;33.91;22.93
21956;BME280;11142;49.930;8.606;2023-05-01T12:18:10;99886.66;;;32.90;24.41
21956;BME280;11142;49.930;8.606;2023-05-01T12:20:40;99880.00;;;33.14;24.24
21956;BME280;11142;49.930;8.606;2023-05-01T12:23:08;99889.47;;;30.50;25.25
21956;BME280;11142;49.930;8.606;2023-05-01T12:25:37;99882.66;;;28.86;28.20
21956;BME280;11142;49.930;8.606;2023-05-01T12:28:07;99879.16;;;27.73;29.39
21956;BME280;11142;49.930;8.606;2023-05-01T12:30:37;99881.09;;;27.47;29.44
21956;BME280;11142;49.930;8.606;2023-05-01T12:33:10;99875.16;;;27.51;29.82
21956;BME280;11142;49.930;8.606;2023-05-01T12:35:39;99877.16;;;28.00;29.24
21956;BME280;11142;49.930;8.606;2023-05-01T12:38:14;99873.63;;;28.37;28.61
21956;BME280;11142;49.930;8.606;2023-05-01T12:40:49;99881.81;;;28.92;28.01
21956;BME280;11142;49.930;8.606;2023-05-01T12:43:20;99877.34;;;30.60;25.00
21956;BME280;11142;49.930;8.606;2023-05-01T12:45:52;99887.25;;;33.74;22.10
21956;BME280;11142;49.930;8.606;2023-05-01T12:48:20;99880.47;;;35.55;20.12
21956;BME280;11142;49.930;8.606;2023-05-01T12:50:49;99884.78;;;33.72;22.32
21956;BME280;11142;49.930;8.606;2023-05-01T12:53:20;99879.59;;;32.67;22.71
21956;BME280;11142;49.930;8.606;2023-05-01T12:55:49;99872.09;;;30.65;25.15
21956;BME280;11142;49.930;8.606;2023-05-01T12:58:17;99869.84;;;28.20;27.19
21956;BME280;11142;49.930;8.606;2023-05-01T13:00:48;99864.91;;;28.73;27.93
21956;BME280;11142;49.930;8.606;2023-05-01T13:03:20;99869.25;;;29.83;26.73
21956;BME280;11142;49.930;8.606;2023-05-01T13:05:50;99872.31;;;30.51;24.96
21956;BME280;11142;49.930;8.606;2023-05-01T13:08:25;99872.00;;;30.60;26.33
21956;BME280;11142;49.930;8.606;2023-05-01T13:10:55;99864.75;;;29.11;26.74
21956;BME280;11142;49.930;8.606;2023-05-01T13:13:23;99858.41;;;28.63;27.09
21956;BME280;11142;49.930;8.606;2023-05-01T13:15:52;99863.69;;;29.96;26.19
21956;BME280;11142;49.930;8.606;2023-05-01T13:18:22;99861.13;;;32.92;23.42
21956;BME280;11142;49.930;8.606;2023-05-01T13:20:50;99858.59;;;31.86;23.62
21956;BME280;11142;49.930;8.606;2023-05-01T13:23:19;99861.25;;;30.71;26.43
21956;BME280;11142;49.930;8.606;2023-05-01T13:25:47;99862.78;;;29.18;27.60